Weather at Ronald Reagan Washington National Airport

Public forecast

Using degrees Fahrenheit for public forecast. Weather courtesy of forecast.io.

Current aviation weather report (METAR) for Ronald Reagan Washington National Airport

Retrieved 2022/06/30 09:52 UTC (44 minutes ago):

KDCA 300952Z 22003KT 10SM FEW110 FEW250 23/19 A3021 RMK AO2 SLP230 T02280194

Aviation forecast (TAF) for Ronald Reagan Washington National Airport

Retrieved 2022/06/30 06:42 UTC (4 hours ago):

TAF KDCA 300539Z 3006/0112 19007KT P6SM FEW060 SCT250